Halethorpe, Maryland
Current Conditions -  °F | °C
As of 11:54 AM on Thursday 23 Oct 2014 (Local Time) from KBWI Reporting Station
Broken Clouds Broken Clouds  
Wind Chill: 60°   Ceiling: 7500
Heat Index: 60°   Visibility: 10mi
Dew Point: 44°   Wind: 22mph
Humidity: 55%   Direction: 320°NW
Pressure: 29.85"   Gusts: 31mph
Location:  39.24°N, 76.68°W
Report Text: KBWI 231554Z 32019G27KT 10SM SCT035 BKN075 BKN120 16/07 A2985 RMK AO2 PK WND 33027/1553 SLP108 T01560067
Loading
Personal Weather Stations






























Interactive Weather Map
Tropical Storm Tracking
New forecast layout! Learn more

10-Day Weather Forecast

Advertisements
Track Severe Weather on mobile